Pagrindinis puslapis
METAR-TAF:

METAR-TAF

Oro uostai :

Šarm el Šeichas, Egiptas

platuma: 27-58N, ilguma: 034-23E, Aukštis: 50 m

Dabartinis oras

Ataskaita buvo paskelbta 56 minutes, ne 16:00 UTC
Vėjas 7 kt iš Šiaurės
Temperatūra 16°C
Drėgmė 51%
Slėgis 1021 hPa
Matomumas 10 km arba daugiau
Mažai debesys ne aukštis 2500 ft
Išsisklaidę debesys ne aukštis 3000 ft

METAR: HESH 221600Z 36007KT 9999 FEW025 SCT030 16/06 Q1021 NOSIG

Laikas: 18:56 (16:56 UTC)

Prognozė

Ataskaita buvo paskelbta 5 valandos ir 56 minutes, ne 11:00 UTC
Prognozė galioja nuo 22 metu 12 UTC su 23 metu 18 UTC
Vėjas 14 kt iš Šiaurės
Matomumas 10 km arba daugiau
Mažai debesys ne aukštis 3000 ft

TAF: HESH 221100Z 2212/2318 01014KT 9999 FEW030

Orai ataskaitas ir orų prognozės (METAR, TAF).

turimą stotys yra geltonos ir raudonos taškus žemėlapyje.

Perkelti pele per norėdami pamatyti stoties vardą.

Tada spustelėkite, norėdami matyti oro stebėjimo ir prognozės.

Norėdami pakeisti žemėlapį: spustelėkite ant žalios mygtukų su juodo kryžiaus žemyn,; žalią mygtuką su brūkšneliu, jei norite nutolinti; arba žalių rodyklių gretimoms žemėlapius.


METAR-TAF: